Time;durP1;ratioP1;P1;durP2;ratioP2;P2;SDS_P1;SDS_P2;PMS_P1;PMS_P2;Temp;Humidity;BMP_temperature;BMP_pressure;BME280_temperature;BME280_humidity;BME280_pressure;Samples;Min_cycle;Max_cycle;Signal;HPM_P1;HPM_P2
2023/01/29 00:01:16;;;;;;;12.87;11.77;;;0.60;99.90;;;1.17;85.74;99005.66;5221090;28;20571;-60
2023/01/29 00:03:52;;;;;;;11.27;10.37;;;0.60;99.90;;;1.24;85.70;98995.56;5208557;28;20224;-61
2023/01/29 00:06:25;;;;;;;11.93;10.93;;;0.60;99.90;;;1.22;85.67;98991.97;5210557;28;20621;-59
2023/01/29 00:08:58;;;;;;;11.70;10.70;;;0.60;99.90;;;1.26;86.08;98994.13;5213445;28;20607;-60
2023/01/29 00:11:31;;;;;;;11.37;10.37;;;0.70;99.90;;;1.22;85.79;98999.53;5217824;28;20227;-59
2023/01/29 00:14:05;;;;;;;11.97;10.97;;;0.60;99.90;;;1.27;86.53;99005.97;5216090;28;20252;-60
2023/01/29 00:16:38;;;;;;;12.23;11.03;;;0.70;99.90;;;1.29;86.74;98999.50;5214061;28;20234;-59
2023/01/29 00:19:12;;;;;;;11.50;10.60;;;0.70;99.90;;;1.34;86.65;99005.94;5213265;28;20210;-60
2023/01/29 00:21:46;;;;;;;12.97;11.73;;;0.70;99.90;;;1.39;87.32;99003.03;5218092;28;20199;-60
2023/01/29 00:24:19;;;;;;;12.47;11.37;;;0.70;99.90;;;1.42;86.68;99000.84;5213472;28;20696;-60
2023/01/29 00:26:52;;;;;;;11.67;10.67;;;0.70;99.90;;;1.39;86.73;98998.00;5217980;28;20198;-60
2023/01/29 00:29:25;;;;;;;13.30;12.10;;;0.70;99.90;;;1.19;86.07;98995.78;5215688;28;20680;-61
2023/01/29 00:31:58;;;;;;;11.47;10.50;;;0.60;99.90;;;1.32;86.14;99006.50;5214699;28;20201;-61
2023/01/29 00:34:32;;;;;;;12.77;11.67;;;0.70;99.90;;;1.30;85.91;99003.81;5213542;28;20221;-61
2023/01/29 00:37:07;;;;;;;12.37;11.30;;;0.70;99.90;;;1.28;86.86;98997.69;5216594;28;20205;-59
2023/01/29 00:39:40;;;;;;;12.30;11.30;;;0.60;99.90;;;1.30;87.23;99001.28;5215393;28;20582;-60
2023/01/29 00:45:11;;;;;;;12.20;11.00;;;0.70;99.90;;;1.24;86.10;99004.75;5211227;28;20236;-59
2023/01/29 00:47:44;;;;;;;12.33;11.30;;;0.60;99.90;;;1.32;86.83;99004.00;5209803;28;20202;-59
2023/01/29 00:50:19;;;;;;;11.80;10.80;;;0.70;99.90;;;1.17;86.24;99003.16;5214530;28;20220;-61
2023/01/29 00:52:53;;;;;;;11.43;10.43;;;0.60;99.90;;;1.21;85.75;99002.78;5212268;28;20556;-60
2023/01/29 00:55:26;;;;;;;11.80;10.80;;;0.60;99.90;;;1.29;85.97;98991.94;5212540;28;20237;-61
2023/01/29 00:57:59;;;;;;;11.47;10.47;;;0.60;99.90;;;1.41;84.86;99002.47;5218615;28;20235;-59
2023/01/29 01:00:32;;;;;;;11.37;10.37;;;0.60;99.90;;;1.25;84.30;98999.88;5213441;28;20233;-61
2023/01/29 01:03:04;;;;;;;11.17;10.27;;;0.50;99.90;;;1.08;85.43;98997.09;5210273;28;20206;-61
2023/01/29 01:05:39;;;;;;;11.00;10.17;;;0.50;99.90;;;0.98;85.34;98994.28;5209939;28;20282;-60
2023/01/29 01:11:06;;;;;;;11.60;10.60;;;0.40;99.90;;;1.13;86.12;98998.50;5217590;28;20207;-61
2023/01/29 01:13:39;;;;;;;11.77;10.67;;;0.50;99.90;;;1.05;85.60;98996.75;5213377;28;20246;-59
2023/01/29 01:16:14;;;;;;;11.87;10.83;;;0.50;99.90;;;1.10;85.98;98993.13;5213876;28;20231;-59
2023/01/29 01:18:47;;;;;;;10.70;9.90;;;0.50;99.90;;;1.07;85.42;98985.25;5218488;28;20287;-60
2023/01/29 01:21:21;;;;;;;11.40;10.43;;;0.50;99.90;;;1.13;85.41;98985.94;5214453;28;20208;-60
2023/01/29 01:23:54;;;;;;;10.40;9.50;;;0.50;99.90;;;1.20;86.29;98977.41;5216278;28;20232;-59
2023/01/29 01:26:27;;;;;;;11.00;10.00;;;0.60;99.90;;;1.25;86.10;98977.22;5219106;28;20204;-57
2023/01/29 01:29:00;;;;;;;11.30;10.30;;;0.60;99.90;;;1.24;87.27;98977.94;5213574;28;20250;-57
2023/01/29 01:31:33;;;;;;;11.13;10.23;;;0.60;99.90;;;1.25;87.01;98977.22;5207287;28;20688;-59
2023/01/29 01:34:06;;;;;;;11.03;10.13;;;0.60;99.90;;;1.20;86.52;98983.34;5212406;28;20229;-55
2023/01/29 01:36:41;;;;;;;10.43;9.63;;;0.60;99.90;;;1.23;85.36;98978.69;5211369;28;20229;-57
2023/01/29 01:39:14;;;;;;;9.80;9.00;;;0.50;99.90;;;1.22;85.45;98981.91;5212160;28;20211;-59
2023/01/29 01:41:47;;;;;;;11.20;10.30;;;0.50;99.90;;;1.20;85.56;98982.47;5217860;28;20285;-56
2023/01/29 01:44:53;;;;;;;10.77;9.77;;;0.50;99.90;;;1.26;87.06;98979.03;5212259;28;20256;-56
2023/01/29 01:47:34;;;;;;;10.20;9.40;;;0.60;99.90;;;1.29;87.07;98978.47;5202883;28;20206;-54
2023/01/29 01:50:13;;;;;;;10.23;9.33;;;0.60;99.90;;;1.19;85.87;98986.59;5212829;28;20204;-59
2023/01/29 01:52:53;;;;;;;11.07;9.97;;;0.60;99.90;;;1.04;85.39;98982.38;5212603;28;20220;-60
2023/01/29 01:55:29;;;;;;;10.07;9.17;;;0.50;99.90;;;1.13;86.47;98975.84;5217418;28;20204;-60
2023/01/29 01:58:09;;;;;;;10.60;9.70;;;0.50;99.90;;;1.10;85.53;98967.97;5209253;28;20197;-60
2023/01/29 02:00:42;;;;;;;10.27;9.43;;;0.50;99.90;;;1.09;85.87;98974.63;5209035;28;20208;-60
2023/01/29 02:12:01;;;;;;;10.40;9.60;;;0.60;99.90;;;1.15;85.99;98973.53;5206176;28;20233;-60
2023/01/29 02:14:37;;;;;;;9.73;8.90;;;0.50;99.90;;;1.21;86.61;98980.13;5210036;28;20779;-61
2023/01/29 02:17:14;;;;;;;10.70;9.70;;;0.60;99.90;;;1.26;87.28;98979.03;5215647;28;20260;-61
2023/01/29 02:19:57;;;;;;;9.63;8.83;;;0.60;99.90;;;1.24;86.60;98977.94;5210640;28;20208;-61
2023/01/29 02:22:54;;;;;;;9.77;8.93;;;0.60;99.90;;;1.25;86.43;98989.78;5218538;28;20223;-61
2023/01/29 02:25:59;;;;;;;9.73;8.87;;;0.60;99.90;;;1.30;85.31;98991.22;5209691;28;20657;-61
2023/01/29 02:28:41;;;;;;;9.10;8.33;;;0.60;99.90;;;1.22;85.71;98986.94;5211265;28;20202;-61
2023/01/29 02:31:25;;;;;;;9.60;8.80;;;0.50;99.90;;;1.23;86.71;98988.75;5209917;28;20665;-60
2023/01/29 02:34:08;;;;;;;9.53;8.83;;;0.60;99.90;;;1.24;86.95;98990.53;5208525;28;20222;-61
2023/01/29 02:36:50;;;;;;;10.40;9.50;;;0.60;99.90;;;1.28;86.28;98990.13;5220621;28;20678;-61
2023/01/29 02:39:34;;;;;;;9.00;8.30;;;0.60;99.90;;;1.27;86.16;98984.94;5207416;28;20233;-59
2023/01/29 02:42:15;;;;;;;10.30;9.30;;;0.60;99.90;;;1.24;86.54;98993.06;5218679;28;20204;-61
2023/01/29 02:44:56;;;;;;;9.17;8.47;;;0.60;99.90;;;1.28;86.76;98987.63;5217315;28;20316;-60
2023/01/29 02:47:35;;;;;;;9.33;8.57;;;0.60;99.90;;;1.22;86.99;98984.41;5218867;28;20292;-61
2023/01/29 02:50:15;;;;;;;9.40;8.63;;;0.60;99.90;;;1.26;87.34;98983.13;5215776;28;20288;-61
2023/01/29 02:53:00;;;;;;;10.20;9.40;;;0.60;99.90;;;1.32;87.53;98984.72;5208897;28;20211;-61
2023/01/29 02:55:38;;;;;;;10.80;9.87;;;0.60;99.90;;;1.31;88.27;98989.56;5211300;28;20628;-61
2023/01/29 02:58:17;;;;;;;10.90;9.97;;;0.60;99.90;;;1.32;88.70;98989.75;5212898;28;20209;-61
2023/01/29 03:00:54;;;;;;;10.60;9.70;;;0.60;99.90;;;1.30;87.63;98985.28;5212988;28;20284;-60
2023/01/29 03:03:31;;;;;;;10.37;9.40;;;0.60;99.90;;;1.29;87.14;98986.91;5211575;28;20228;-61
2023/01/29 03:06:18;;;;;;;10.43;9.53;;;0.60;99.90;;;1.35;87.11;98980.03;5209580;28;20620;-61
2023/01/29 03:08:57;;;;;;;10.90;9.90;;;0.60;99.90;;;1.44;85.69;98979.25;5207418;28;20304;-61
2023/01/29 03:11:35;;;;;;;10.67;9.83;;;0.70;99.90;;;1.29;85.60;98981.88;5207809;28;20204;-60
2023/01/29 03:14:13;;;;;;;9.33;8.53;;;0.60;99.90;;;1.23;85.33;98978.69;5211992;28;20394;-61
2023/01/29 03:16:51;;;;;;;10.03;9.13;;;0.50;99.90;;;1.25;85.62;98974.69;5207850;28;20225;-61
2023/01/29 03:19:34;;;;;;;9.97;9.10;;;0.50;99.90;;;1.20;85.34;98968.25;5208218;28;20223;-61
2023/01/29 03:22:11;;;;;;;10.20;9.40;;;0.50;99.90;;;1.20;85.76;98963.19;5207133;28;20212;-61
2023/01/29 03:33:42;;;;;;;10.43;9.57;;;0.50;99.90;;;1.26;87.68;98979.03;5214880;28;20217;-61
2023/01/29 03:36:21;;;;;;;11.17;10.17;;;0.60;99.90;;;1.24;88.35;98967.88;5208782;28;20209;-61
2023/01/29 03:38:54;;;;;;;10.90;9.93;;;0.60;99.90;;;1.26;87.97;98968.03;5205034;28;20200;-60
2023/01/29 03:41:35;;;;;;;10.53;9.63;;;0.60;99.90;;;1.27;87.76;98975.75;5213321;28;20830;-61
2023/01/29 03:44:15;;;;;;;10.17;9.37;;;0.60;99.90;;;1.29;88.59;98974.31;5217120;28;20228;-59
2023/01/29 03:46:56;;;;;;;9.63;8.83;;;0.60;99.90;;;1.32;88.43;98968.72;5215102;28;20240;-59
2023/01/29 03:49:42;;;;;;;10.63;9.73;;;0.60;99.90;;;1.33;88.65;98981.47;5209368;28;20516;-60
2023/01/29 03:52:21;;;;;;;10.73;9.83;;;0.60;99.90;;;1.33;88.11;98981.47;5209484;28;20217;-60
2023/01/29 03:55:00;;;;;;;9.77;9.00;;;0.60;99.90;;;1.31;88.28;98987.06;5205838;28;20664;-61
2023/01/29 03:57:38;;;;;;;9.47;8.67;;;0.60;99.90;;;1.32;88.36;98987.25;5206033;28;20213;-60
2023/01/29 04:00:18;;;;;;;10.93;9.93;;;0.60;99.90;;;1.29;89.30;98976.84;5207400;28;20749;-59
2023/01/29 04:02:58;;;;;;;9.90;9.00;;;0.60;99.90;;;1.29;88.70;98979.34;5214116;28;20407;-61
2023/01/29 04:05:40;;;;;;;10.17;9.27;;;0.60;99.90;;;1.24;87.62;98987.13;5210928;28;20661;-61
2023/01/29 04:08:21;;;;;;;10.13;9.33;;;0.50;99.90;;;1.21;87.11;98992.72;5217355;28;20787;-60
2023/01/29 04:10:57;;;;;;;11.07;10.17;;;0.50;99.90;;;1.25;87.08;98981.34;5209930;28;20201;-58
2023/01/29 04:13:32;;;;;;;10.10;9.30;;;0.50;99.90;;;1.20;86.65;98984.97;5211412;28;20231;-58
2023/01/29 04:16:10;;;;;;;9.93;9.13;;;0.50;99.90;;;1.23;86.20;98982.78;5213900;28;20200;-59
2023/01/29 04:18:45;;;;;;;11.63;10.53;;;0.50;99.90;;;1.20;87.19;98985.88;5208979;28;20228;-59
2023/01/29 04:21:21;;;;;;;11.20;10.13;;;0.50;99.90;;;1.24;87.35;98987.13;5214792;28;20222;-60
2023/01/29 04:23:54;;;;;;;10.37;9.57;;;0.50;99.90;;;1.16;86.39;98986.25;5210285;28;20232;-58
2023/01/29 04:26:56;;;;;;;10.43;9.53;;;0.50;99.90;;;1.12;88.15;98990.06;5208020;28;20267;-60
2023/01/29 04:29:43;;;;;;;11.40;10.40;;;0.50;99.90;;;1.19;87.53;98986.59;5211539;28;20813;-59
2023/01/29 04:32:22;;;;;;;10.13;9.30;;;0.50;99.90;;;1.22;87.93;98991.97;5212705;28;20250;-57
2023/01/29 04:35:01;;;;;;;9.90;8.90;;;0.60;99.90;;;1.25;88.00;98992.31;5219256;28;20275;-60
2023/01/29 04:37:44;;;;;;;10.43;9.57;;;0.60;99.90;;;1.28;88.37;98991.75;5212444;28;20231;-58
2023/01/29 04:40:25;;;;;;;10.00;9.03;;;0.60;99.90;;;1.28;89.10;98997.69;5213695;28;20197;-60
2023/01/29 04:43:05;;;;;;;10.37;9.40;;;0.60;99.90;;;1.27;88.29;98980.78;5211471;28;20198;-60
2023/01/29 04:45:52;;;;;;;9.57;8.87;;;0.60;99.90;;;1.27;88.25;98988.34;5211018;28;20215;-60
2023/01/29 04:48:30;;;;;;;10.13;9.23;;;0.60;99.90;;;1.24;88.32;98988.00;5215226;28;20218;-58
2023/01/29 04:51:12;;;;;;;9.20;8.47;;;0.60;99.90;;;1.29;88.21;98983.50;5210004;28;20221;-58
2023/01/29 04:53:53;;;;;;;10.07;9.23;;;0.60;99.90;;;1.27;88.32;98975.75;5208284;28;20680;-59
2023/01/29 04:56:33;;;;;;;9.97;9.07;;;0.60;99.90;;;1.30;87.75;98978.63;5207138;28;20300;-60
2023/01/29 04:59:09;;;;;;;9.40;8.60;;;0.60;99.90;;;1.32;87.50;98976.28;5209695;28;20209;-60
2023/01/29 05:01:44;;;;;;;9.83;9.03;;;0.60;99.90;;;1.35;87.32;98974.09;5210854;28;20213;-59
2023/01/29 05:04:20;;;;;;;9.73;8.83;;;0.60;99.90;;;1.37;85.46;98970.09;5219859;22;20227;-80
2023/01/29 05:06:55;;;;;;;9.93;9.03;;;0.50;99.90;;;1.29;85.89;98979.34;5227951;28;20268;-81
2023/01/29 05:09:30;;;;;;;9.63;8.83;;;0.50;99.90;;;1.20;85.11;98987.50;5220801;28;20205;-81
2023/01/29 05:12:06;;;;;;;10.00;9.10;;;0.50;99.90;;;1.19;84.99;98981.56;5227695;28;20314;-80
2023/01/29 05:14:42;;;;;;;9.40;8.70;;;0.50;99.90;;;1.19;84.77;98981.56;5220036;28;20290;-80
2023/01/29 05:17:20;;;;;;;10.00;9.10;;;0.50;99.90;;;1.21;84.46;98989.31;5228880;28;20773;-79
2023/01/29 05:19:53;;;;;;;10.13;9.23;;;0.50;99.90;;;1.07;83.36;98995.31;5219365;28;20229;-81
2023/01/29 05:22:27;;;;;;;10.10;9.23;;;0.40;99.90;;;1.16;83.29;98987.91;5227127;28;20221;-80
2023/01/29 05:25:01;;;;;;;9.53;8.77;;;0.50;99.90;;;1.12;82.49;98991.69;5228641;28;20199;-80
2023/01/29 05:30:27;;;;;;;9.93;9.10;;;0.40;99.90;;;1.17;83.80;98980.50;5226321;28;20295;-80
2023/01/29 05:33:00;;;;;;;10.03;9.13;;;0.50;99.90;;;1.19;84.60;98983.19;5221825;28;20224;-80
2023/01/29 05:35:33;;;;;;;9.77;8.90;;;0.50;99.90;;;1.21;83.93;98990.19;5226424;28;20202;-81
2023/01/29 05:38:06;;;;;;;9.20;8.40;;;0.50;99.90;;;1.11;83.08;98992.41;5224830;28;20213;-81
2023/01/29 05:40:41;;;;;;;9.40;8.63;;;0.40;99.90;;;1.13;83.17;98991.84;5227600;28;20205;-80
2023/01/29 05:43:17;;;;;;;8.53;7.93;;;0.50;99.90;;;1.18;83.00;98994.91;5225075;28;20319;-81
2023/01/29 05:45:54;;;;;;;8.67;7.97;;;0.50;99.90;;;1.22;83.67;98984.41;5224867;28;20322;-81
2023/01/29 05:48:30;;;;;;;9.60;8.90;;;0.50;99.90;;;1.26;83.88;98988.16;5228573;28;20202;-81
2023/01/29 05:51:04;;;;;;;9.40;8.60;;;0.50;99.90;;;1.26;83.57;98980.63;5227086;28;20305;-80
2023/01/29 05:53:38;;;;;;;9.23;8.47;;;0.50;99.90;;;1.28;83.74;98974.13;5226896;28;20204;-81
2023/01/29 05:56:12;;;;;;;8.60;7.90;;;0.50;99.90;;;1.27;81.67;98980.78;5225343;28;20243;-78
2023/01/29 05:58:45;;;;;;;8.67;7.97;;;0.50;99.90;;;1.28;82.23;98964.94;5229594;28;20307;-81
2023/01/29 06:01:20;;;;;;;8.63;7.93;;;0.50;99.90;;;1.27;82.55;98950.59;5228535;28;20209;-80
2023/01/29 06:03:53;;;;;;;9.00;8.20;;;0.60;99.90;;;1.29;82.55;98944.09;5227564;28;20588;-79
2023/01/29 06:06:27;;;;;;;8.93;8.23;;;0.50;99.90;;;1.32;81.80;98931.84;5226752;28;20197;-80
2023/01/29 06:09:00;;;;;;;9.00;8.30;;;0.60;99.90;;;1.32;81.62;98931.84;5226186;28;20201;-81
2023/01/29 06:11:34;;;;;;;9.13;8.33;;;0.60;99.90;;;1.29;81.71;98933.13;5224263;28;20775;-81
2023/01/29 06:14:07;;;;;;;8.40;7.70;;;0.50;99.90;;;1.24;81.17;98939.28;5228026;28;20200;-81
2023/01/29 06:16:40;;;;;;;9.67;8.80;;;0.50;99.90;;;1.26;81.38;98946.28;5228119;28;20280;-79
2023/01/29 06:19:13;;;;;;;9.43;8.70;;;0.50;99.90;;;1.25;81.33;98947.00;5225099;28;20343;-81
2023/01/29 06:21:46;;;;;;;9.10;8.40;;;0.50;99.90;;;1.25;81.67;98926.84;5228267;28;20249;-80
2023/01/29 06:24:19;;;;;;;9.17;8.37;;;0.50;99.90;;;1.28;83.08;98938.88;5226574;28;20212;-81
2023/01/29 06:26:54;;;;;;;10.50;9.60;;;0.60;99.90;;;1.26;82.22;98943.78;5227223;28;20305;-81
2023/01/29 06:29:27;;;;;;;9.13;8.43;;;0.50;99.90;;;1.18;82.22;98952.09;5227455;28;20207;-82
2023/01/29 06:32:00;;;;;;;9.30;8.53;;;0.50;99.90;;;1.22;80.71;98949.19;5222754;28;20717;-81
2023/01/29 06:34:33;;;;;;;8.90;8.20;;;0.40;99.90;;;1.19;79.55;98961.44;5226314;28;20235;-82
2023/01/29 06:37:07;;;;;;;10.53;9.63;;;0.50;99.90;;;1.18;80.12;98961.28;5226814;28;20229;-81
2023/01/29 06:39:40;;;;;;;9.17;8.47;;;0.50;99.90;;;1.21;79.84;98959.09;5229381;28;20220;-81
2023/01/29 06:42:14;;;;;;;10.57;9.77;;;0.50;99.90;;;1.22;80.40;98963.38;5224813;28;20233;-80
2023/01/29 06:44:48;;;;;;;9.80;8.93;;;0.40;99.90;;;1.22;81.01;98961.75;5227384;28;20290;-81
2023/01/29 06:47:21;;;;;;;10.90;10.10;;;0.50;99.90;;;1.22;80.36;98959.25;5224884;28;20214;-82
2023/01/29 06:49:54;;;;;;;22.10;15.93;;;0.50;99.90;;;1.27;79.54;98972.34;5221109;28;20970;-84
2023/01/29 06:52:28;;;;;;;11.93;10.83;;;0.40;99.90;;;1.29;79.01;98983.50;5221665;28;20259;-83
2023/01/29 06:55:01;;;;;;;17.60;13.57;;;0.50;99.90;;;1.25;79.65;98974.69;5223309;28;20296;-82
2023/01/29 06:57:36;;;;;;;9.50;8.60;;;0.50;99.90;;;1.31;78.58;98977.00;5221441;28;20201;-83
2023/01/29 07:00:10;;;;;;;10.37;9.47;;;0.40;99.90;;;1.28;78.35;98971.63;5225698;28;20599;-80
2023/01/29 07:02:44;;;;;;;10.97;10.07;;;0.50;99.90;;;1.20;79.91;98973.28;5225104;28;20307;-83
2023/01/29 07:05:17;;;;;;;9.47;8.77;;;0.50;99.90;;;1.26;77.68;98983.13;5223705;28;20629;-82
2023/01/29 07:07:50;;;;;;;9.53;8.73;;;0.50;99.90;;;1.21;78.19;98979.22;5226353;28;20234;-83
2023/01/29 07:10:23;;;;;;;9.90;9.10;;;0.50;99.90;;;1.22;78.78;98983.53;5222993;28;21170;-83
2023/01/29 07:12:59;;;;;;;9.70;8.90;;;0.50;99.90;;;1.18;78.94;98994.00;5226985;28;20315;-83
2023/01/29 07:15:32;;;;;;;10.80;9.80;;;0.50;99.90;;;1.18;80.37;98991.50;5225627;28;20204;-83
2023/01/29 07:18:10;;;;;;;11.70;10.57;;;0.50;99.90;;;1.24;80.69;98985.50;5227373;28;20209;-82
2023/01/29 07:20:52;;;;;;;11.03;10.03;;;0.50;99.90;;;1.28;80.98;98995.16;5219575;28;20212;-83
2023/01/29 07:23:25;;;;;;;10.57;9.67;;;0.50;99.90;;;1.26;81.58;98991.59;5222736;28;20315;-84
2023/01/29 07:26:02;;;;;;;9.87;8.97;;;0.50;99.90;;;1.28;81.24;98987.63;5223246;28;20215;-84
2023/01/29 07:28:38;;;;;;;9.53;8.83;;;0.50;99.90;;;1.28;81.17;98997.69;5220360;28;20303;-83
2023/01/29 07:31:13;;;;;;;9.67;8.87;;;0.50;99.90;;;1.30;80.90;98990.31;5224686;28;20209;-84
2023/01/29 07:33:47;;;;;;;10.10;9.10;;;0.60;99.90;;;1.30;81.70;98991.22;5228359;28;20215;-84
2023/01/29 07:36:20;;;;;;;11.17;10.17;;;0.60;99.90;;;1.33;80.44;98995.69;5221792;28;20300;-82
2023/01/29 07:38:53;;;;;;;10.10;9.20;;;0.60;99.90;;;1.34;80.24;98997.47;5220481;28;20303;-83
2023/01/29 07:41:26;;;;;;;11.10;10.20;;;0.60;99.90;;;1.34;81.01;98993.34;5227413;28;20576;-83
2023/01/29 07:44:00;;;;;;;11.30;10.30;;;0.60;99.90;;;1.35;80.81;98995.13;5224564;28;20205;-83
2023/01/29 07:46:33;;;;;;;9.90;9.10;;;0.60;99.90;;;1.35;80.31;99000.19;5220379;28;20315;-84
2023/01/29 07:49:07;;;;;;;10.93;10.03;;;0.70;99.90;;;1.39;81.07;98998.00;5226257;28;20199;-83
2023/01/29 07:51:40;;;;;;;11.10;10.20;;;0.70;99.90;;;1.40;80.85;99007.34;5226461;28;20258;-84
2023/01/29 07:54:13;;;;;;;10.60;9.70;;;0.70;99.90;;;1.41;80.15;99009.16;5228219;28;20661;-83
2023/01/29 07:56:46;;;;;;;10.47;9.57;;;0.70;99.90;;;1.45;80.90;99009.63;5229648;28;20292;-83
2023/01/29 07:59:20;;;;;;;10.77;9.87;;;0.70;99.90;;;1.48;81.03;99012.50;5227524;28;20315;-82
2023/01/29 08:01:53;;;;;;;10.00;9.10;;;0.70;99.90;;;1.48;79.86;99012.50;5227529;28;20667;-84
2023/01/29 08:04:27;;;;;;;10.77;9.77;;;0.80;99.90;;;1.49;80.39;99020.97;5226241;28;20216;-82
2023/01/29 08:07:00;;;;;;;11.80;10.80;;;0.80;99.90;;;1.53;78.76;99020.56;5226288;28;20199;-82
2023/01/29 08:09:33;;;;;;;11.67;10.57;;;0.80;99.90;;;1.57;79.81;99017.66;5228392;28;20657;-83
2023/01/29 08:12:07;;;;;;;12.13;11.03;;;0.80;99.90;;;1.63;80.28;99013.31;5227504;28;20233;-84
2023/01/29 08:14:41;;;;;;;12.03;10.97;;;0.80;99.90;;;1.65;79.74;99021.91;5228478;28;20201;-82
2023/01/29 08:17:15;;;;;;;11.33;10.33;;;0.80;99.90;;;1.65;80.31;99011.81;5227035;28;20585;-84
2023/01/29 08:19:48;;;;;;;11.53;10.43;;;0.80;99.90;;;1.63;80.45;99008.25;5227867;28;20243;-84
2023/01/29 08:22:21;;;;;;;11.80;10.60;;;0.80;99.90;;;1.66;79.85;99001.03;5228941;28;20236;-83
2023/01/29 08:24:54;;;;;;;10.97;10.07;;;0.80;99.90;;;1.66;80.50;99006.09;5226794;28;20229;-83
2023/01/29 08:27:40;;;;;;;12.10;11.00;;;0.80;99.90;;;1.65;80.09;99016.88;5226705;28;20216;-84
2023/01/29 08:30:15;;;;;;;11.90;10.90;;;0.80;99.90;;;1.69;80.11;99019.00;5224236;28;20211;-84
2023/01/29 08:32:49;;;;;;;11.13;10.03;;;0.90;99.90;;;1.73;79.80;99021.13;5226653;28;20231;-83
2023/01/29 08:35:23;;;;;;;11.20;10.20;;;0.90;99.90;;;1.69;79.20;99034.13;5232026;28;20247;-83
2023/01/29 08:37:59;;;;;;;10.90;9.83;;;0.90;99.90;;;1.61;78.92;99029.88;5223400;28;20296;-82
2023/01/29 08:40:34;;;;;;;11.07;10.10;;;0.90;99.90;;;1.65;79.59;99031.97;5228191;28;20304;-82
2023/01/29 08:43:10;;;;;;;11.13;10.13;;;0.90;99.90;;;1.71;79.12;99034.28;5225004;28;20230;-82
2023/01/29 08:45:44;;;;;;;10.43;9.60;;;0.90;99.90;;;1.68;79.27;99042.41;5230609;28;20211;-82
2023/01/29 08:48:17;;;;;;;11.77;10.67;;;0.90;99.90;;;1.68;80.64;99037.34;5228122;28;20347;-83
2023/01/29 08:50:50;;;;;;;11.57;10.37;;;0.90;99.90;;;1.79;80.02;99036.03;5228972;28;20228;-82
2023/01/29 08:53:24;;;;;;;12.27;11.07;;;0.90;99.90;;;1.86;79.95;99035.97;5230079;28;21385;-83
2023/01/29 08:55:57;;;;;;;12.30;11.20;;;0.90;99.90;;;1.80;80.51;99042.84;5224350;28;20295;-82
2023/01/29 08:58:30;;;;;;;12.30;11.20;;;0.90;99.90;;;1.80;80.39;99053.84;5220667;28;20219;-82
2023/01/29 09:01:11;;;;;;;13.20;12.10;;;0.90;99.90;;;1.78;79.71;99060.34;5222579;28;20702;-81
2023/01/29 09:03:44;;;;;;;13.67;12.30;;;1.00;99.90;;;1.76;80.07;99061.78;5221986;28;20262;-81
2023/01/29 09:06:18;;;;;;;13.57;12.17;;;1.00;99.90;;;1.78;79.44;99060.34;5223062;28;20209;-82
2023/01/29 09:08:51;;;;;;;14.67;13.27;;;1.00;99.90;;;1.77;80.51;99058.56;5222184;28;20690;-81
2023/01/29 09:11:24;;;;;;;13.87;12.47;;;1.00;99.90;;;1.88;79.30;99058.81;5222828;28;20225;-81
2023/01/29 09:13:57;;;;;;;12.87;11.70;;;1.00;99.90;;;1.78;78.73;99049.38;5227744;28;20210;-81
2023/01/29 09:16:31;;;;;;;11.40;10.40;;;1.00;99.90;;;1.79;78.31;99047.00;5225988;28;20208;-81
2023/01/29 09:19:04;;;;;;;12.00;10.90;;;1.00;99.90;;;1.78;78.68;99061.97;5224864;28;20216;-82
2023/01/29 09:21:37;;;;;;;12.77;11.53;;;1.00;99.90;;;1.83;78.53;99058.31;5225635;28;20235;-79
2023/01/29 09:24:11;;;;;;;15.93;14.23;;;1.00;99.90;;;1.86;78.15;99057.75;5228176;28;20222;-83
2023/01/29 09:26:49;;;;;;;16.17;14.67;;;1.00;99.90;;;1.88;77.29;99057.19;5226912;28;20273;-82
2023/01/29 09:29:28;;;;;;;13.67;12.37;;;1.00;99.90;;;1.94;78.18;99046.88;5223094;28;20197;-81
2023/01/29 09:32:04;;;;;;;13.10;11.90;;;1.00;99.90;;;1.93;76.28;99050.16;5223835;28;20231;-81
2023/01/29 09:34:39;;;;;;;13.07;11.77;;;1.00;99.90;;;2.00;77.34;99052.59;5220944;28;20284;-81
2023/01/29 09:37:12;;;;;;;12.17;10.97;;;1.00;99.90;;;2.07;76.68;99055.06;5218905;28;20206;-82
2023/01/29 09:39:46;;;;;;;12.80;11.70;;;1.10;99.90;;;1.94;74.55;99064.53;5223054;28;20257;-80
2023/01/29 09:42:25;;;;;;;12.33;11.03;;;1.10;99.90;;;1.89;74.54;99061.53;5222680;28;20220;-82
2023/01/29 09:45:06;;;;;;;11.97;10.87;;;1.10;99.90;;;1.91;74.70;99061.66;5221645;28;20286;-81
2023/01/29 09:47:40;;;;;;;12.17;10.97;;;1.10;99.90;;;1.92;75.01;99066.91;5221842;28;20201;-81
2023/01/29 09:50:18;;;;;;;12.03;10.83;;;1.10;99.90;;;1.95;76.56;99058.78;5217799;28;20581;-80
2023/01/29 09:52:57;;;;;;;11.60;10.57;;;1.20;99.90;;;2.22;75.17;99049.16;5220684;28;20306;-82
2023/01/29 09:55:37;;;;;;;12.40;11.20;;;1.10;99.90;;;2.22;74.43;99041.59;5214605;28;20216;-81
2023/01/29 09:58:18;;;;;;;12.20;11.00;;;1.20;99.90;;;2.28;74.44;99030.38;5215882;28;20630;-83
2023/01/29 10:01:00;;;;;;;11.67;10.50;;;1.30;99.90;;;2.24;74.62;99039.25;5217821;28;20268;-81
2023/01/29 10:04:07;;;;;;;11.67;10.60;;;1.30;99.90;;;2.28;73.32;99030.38;5220748;28;20209;-79
2023/01/29 10:06:58;;;;;;;11.63;10.47;;;1.40;99.90;;;2.19;74.34;99021.09;5217017;28;20276;-78
2023/01/29 10:09:59;;;;;;;11.43;10.33;;;1.30;99.90;;;2.29;73.93;98996.84;5216844;28;20197;-78
2023/01/29 10:13:01;;;;;;;15.77;14.43;;;1.40;99.90;;;2.42;73.17;98994.91;5219675;28;20263;-80
2023/01/29 10:16:00;;;;;;;12.60;11.50;;;1.50;99.90;;;2.41;74.93;98995.66;5220355;28;20206;-82
2023/01/29 10:18:56;;;;;;;13.00;11.77;;;1.40;99.90;;;2.87;69.97;98987.88;5222042;28;20568;-80
2023/01/29 10:21:47;;;;;;;13.47;12.13;;;2.00;99.90;;;2.66;71.17;98982.38;5225644;28;20305;-82
2023/01/29 10:24:34;;;;;;;12.63;11.43;;;1.90;99.90;;;2.90;72.47;98978.09;5221249;28;20229;-82
2023/01/29 10:27:16;;;;;;;12.37;11.27;;;2.00;99.90;;;2.73;72.79;98967.88;5225600;28;20205;-81
2023/01/29 10:29:53;;;;;;;12.60;11.27;;;1.60;99.90;;;2.73;73.31;98972.94;5222863;28;20192;-83
2023/01/29 10:32:27;;;;;;;12.47;11.37;;;1.70;99.90;;;2.95;71.51;98987.06;5220758;28;20232;-83
2023/01/29 10:35:06;;;;;;;13.03;11.87;;;1.90;99.90;;;2.81;74.19;98983.09;5224207;28;20196;-83
2023/01/29 10:37:41;;;;;;;11.83;10.83;;;1.80;99.90;;;2.85;73.73;98991.88;5224270;28;20594;-83
2023/01/29 10:40:22;;;;;;;12.53;11.43;;;1.90;99.90;;;2.85;73.70;98994.41;5222014;28;20236;-82
2023/01/29 10:43:03;;;;;;;11.17;10.13;;;1.80;99.90;;;2.75;73.11;98995.06;5217462;28;20730;-82
2023/01/29 10:45:46;;;;;;;11.33;10.33;;;1.70;99.90;;;2.75;72.73;98991.63;5220335;28;20585;-82
2023/01/29 10:48:45;;;;;;;12.13;11.00;;;1.70;99.90;;;2.74;72.87;98989.84;5219477;28;20294;-81
2023/01/29 10:51:40;;;;;;;12.53;11.30;;;1.80;99.90;;;3.03;69.57;98988.72;5218619;28;20238;-81
2023/01/29 10:54:45;;;;;;;12.63;11.33;;;2.30;99.90;;;2.95;72.33;98987.06;5220986;28;20197;-84
2023/01/29 10:57:38;;;;;;;12.47;11.27;;;1.90;99.90;;;2.76;73.92;98973.25;5218250;28;20693;-81
2023/01/29 11:00:20;;;;;;;13.30;12.00;;;1.80;99.90;;;2.71;74.18;98976.16;5218860;28;20227;-82
2023/01/29 11:02:53;;;;;;;13.03;11.60;;;1.80;99.90;;;2.68;74.82;98985.94;5218864;28;20385;-82
2023/01/29 11:05:33;;;;;;;13.60;12.20;;;1.80;99.90;;;2.78;73.17;98981.88;5223009;28;20305;-82
2023/01/29 11:08:12;;;;;;;13.43;12.03;;;1.80;99.90;;;2.66;72.16;98972.28;5220964;28;20205;-79
2023/01/29 11:10:56;;;;;;;11.60;10.60;;;1.80;99.90;;;2.65;72.66;98980.56;5221624;28;20216;-80
2023/01/29 11:13:36;;;;;;;14.57;13.07;;;1.80;99.90;;;2.59;72.98;98979.94;5217964;28;20218;-81
2023/01/29 11:16:10;;;;;;;14.83;13.40;;;1.70;99.90;;;2.69;74.84;98967.56;5223454;28;20217;-83
2023/01/29 11:18:58;;;;;;;15.50;13.93;;;1.80;99.90;;;2.74;74.95;98964.59;5223826;28;20199;-83
2023/01/29 11:21:31;;;;;;;14.47;12.97;;;1.80;99.90;;;2.82;75.30;98968.84;5221270;28;20422;-83
2023/01/29 11:24:15;;;;;;;12.80;11.63;;;1.80;99.90;;;2.91;74.28;98974.84;5223456;28;20294;-83
2023/01/29 11:26:50;;;;;;;12.57;11.23;;;1.80;99.90;;;3.02;72.22;98963.34;5221123;28;20212;-83
2023/01/29 11:29:39;;;;;;;13.43;12.13;;;1.80;99.90;;;2.93;72.29;98961.63;5221250;28;20734;-83
2023/01/29 11:32:24;;;;;;;13.10;11.80;;;1.90;99.90;;;2.91;72.06;98969.78;5217840;28;20225;-82
2023/01/29 11:35:01;;;;;;;11.47;10.40;;;1.90;99.90;;;2.92;72.23;98966.56;5218940;28;20197;-83